Pagrindinis puslapis
METAR-TAF:

METAR-TAF

Oro uostai :

Oro pajėgų bazė

Ismailija, Egiptas

platuma: 30-35-54N, ilguma: 032-14-13E, Aukštis: 13 m

Dabartinis oras

Ataskaita buvo paskelbta 26 minutes, ne 07:00 UTC
Vėjas 6 kt iš Vakarų
Temperatūra 18°C
Drėgmė 56%
Slėgis 1020 hPa
Matomumas: 6000 m
Išsisklaidę debesys ne aukštis 2500 ft

METAR: HEIS 020700Z 27006KT 6000 SCT025 18/09 Q1020

Laikas: 09:26 (07:26 UTC)


TAF: trūkstamas

Orai ataskaitas ir orų prognozės (METAR, TAF).

turimą stotys yra geltonos ir raudonos taškus žemėlapyje.

Perkelti pele per norėdami pamatyti stoties vardą.

Tada spustelėkite, norėdami matyti oro stebėjimo ir prognozės.

Norėdami pakeisti žemėlapį: spustelėkite ant žalios mygtukų su juodo kryžiaus žemyn,; žalią mygtuką su brūkšneliu, jei norite nutolinti; arba žalių rodyklių gretimoms žemėlapius.


METAR-TAF: